Sterling, Nebraska
Current Conditions -  °F | °C
As of 6:15 AM on Friday 31 Oct 2014 (Local Time) from KBIE Reporting Station
Broken Clouds Broken Clouds  
Wind Chill: 20°   Ceiling: 2600
Heat Index: 30°   Visibility: 10mi
Dew Point: 23°   Wind: 13mph
Humidity: 76%   Direction: 350°N
Pressure: 30.51"   Gusts: NA
Location:  40.46°N, 96.38°W
Report Text: KBIE 311115Z AUTO 35011KT 10SM BKN026 M01/M05 A3051 RMK AO2 T10111048
Loading
Personal Weather Stations






























Interactive Weather Map
Tropical Storm Tracking
New forecast layout! Learn more

10-Day Weather Forecast

Advertisements
Track Severe Weather on mobile